Time;durP1;ratioP1;P1;durP2;ratioP2;P2;SDS_P1;SDS_P2;PMS_P1;PMS_P2;Temp;Humidity;BMP_temperature;BMP_pressure;BME280_temperature;BME280_humidity;BME280_pressure;Samples;Min_cycle;Max_cycle;Signal;HPM_P1;HPM_P2
2022/05/31 00:00:26;;;;;;;3.05;1.45;;;20.40;60.50;;;;;;5087892;28;45049;-66
2022/05/31 00:02:55;;;;;;;2.90;1.70;;;20.40;61.30;;;;;;5090019;28;46686;-65
2022/05/31 00:05:22;;;;;;;1.90;1.42;;;20.40;60.30;;;;;;5089215;28;44803;-66
2022/05/31 00:07:50;;;;;;;2.63;1.38;;;20.40;60.60;;;;;;5089570;28;44670;-66
2022/05/31 00:10:17;;;;;;;3.78;1.70;;;20.40;60.40;;;;;;5087721;28;45225;-65
2022/05/31 00:12:45;;;;;;;2.92;1.80;;;20.40;60.40;;;;;;5086620;28;46579;-66
2022/05/31 00:15:14;;;;;;;2.97;1.60;;;20.40;60.50;;;;;;5089675;28;45203;-66
2022/05/31 00:17:41;;;;;;;2.80;1.30;;;20.40;60.50;;;;;;5088413;28;44883;-66
2022/05/31 00:20:11;;;;;;;4.88;1.70;;;20.30;60.70;;;;;;5088378;28;44889;-66
2022/05/31 00:22:39;;;;;;;3.35;1.65;;;20.30;60.50;;;;;;5089878;28;47088;-66
2022/05/31 00:25:08;;;;;;;4.03;1.67;;;20.30;60.70;;;;;;5088936;28;44651;-66
2022/05/31 00:27:35;;;;;;;3.08;1.40;;;20.30;60.50;;;;;;5087221;28;44617;-66
2022/05/31 00:30:02;;;;;;;3.67;1.70;;;20.40;60.60;;;;;;5087883;28;45065;-66
2022/05/31 00:32:33;;;;;;;2.78;1.65;;;20.30;60.80;;;;;;5089835;28;46548;-65
2022/05/31 00:35:08;;;;;;;5.13;1.55;;;20.40;60.40;;;;;;5089716;28;44701;-65
2022/05/31 00:37:36;;;;;;;2.40;1.67;;;20.30;60.50;;;;;;5080503;28;45147;-66
2022/05/31 00:40:04;;;;;;;1.85;1.48;;;20.40;60.30;;;;;;5070286;28;44823;-66
2022/05/31 00:42:53;;;;;;;3.10;1.67;;;20.40;60.40;;;;;;5083080;28;45223;-65
2022/05/31 00:45:20;;;;;;;1.85;1.33;;;20.40;60.30;;;;;;5092820;28;45082;-65
2022/05/31 00:47:48;;;;;;;3.08;1.63;;;20.40;60.10;;;;;;5072868;28;45007;-66
2022/05/31 00:50:23;;;;;;;4.72;1.73;;;20.40;60.40;;;;;;5084971;28;44810;-65
2022/05/31 00:52:53;;;;;;;3.78;1.55;;;20.40;60.70;;;;;;5092790;28;45505;-66
2022/05/31 00:55:23;;;;;;;2.50;1.77;;;20.40;60.80;;;;;;5091438;28;44645;-66
2022/05/31 00:57:57;;;;;;;2.58;1.52;;;20.40;60.40;;;;;;5091541;28;44922;-66
2022/05/31 01:00:24;;;;;;;4.63;1.83;;;20.40;60.50;;;;;;5090563;28;44657;-65
2022/05/31 01:02:51;;;;;;;2.90;1.60;;;20.40;60.50;;;;;;5092333;28;47857;-66
2022/05/31 01:05:20;;;;;;;1.90;1.40;;;20.40;60.40;;;;;;5090358;28;44617;-66
2022/05/31 01:07:47;;;;;;;2.65;1.70;;;20.40;60.50;;;;;;5091685;28;44578;-66
2022/05/31 01:10:16;;;;;;;3.13;1.90;;;20.40;60.30;;;;;;5092134;28;44653;-66
2022/05/31 01:12:46;;;;;;;2.05;1.42;;;20.30;60.30;;;;;;5090623;28;46412;-66
2022/05/31 01:15:17;;;;;;;2.35;1.50;;;20.30;60.40;;;;;;5092321;28;44909;-66
2022/05/31 01:17:44;;;;;;;4.07;1.63;;;20.30;60.60;;;;;;5092503;28;44699;-66
2022/05/31 01:20:16;;;;;;;4.18;1.60;;;20.30;60.50;;;;;;5090634;28;44798;-65
2022/05/31 01:22:46;;;;;;;3.85;1.90;;;20.30;60.70;;;;;;5088385;28;45458;-66
2022/05/31 01:25:25;;;;;;;3.33;1.67;;;20.30;60.50;;;;;;5070095;28;44633;-66
2022/05/31 01:28:01;;;;;;;3.95;1.83;;;20.30;60.60;;;;;;5079939;28;44558;-66
2022/05/31 01:30:31;;;;;;;4.13;1.83;;;20.30;60.30;;;;;;5090128;28;44668;-66
2022/05/31 01:33:02;;;;;;;2.80;1.50;;;20.30;60.20;;;;;;5092321;28;45040;-66
2022/05/31 01:35:33;;;;;;;2.55;1.65;;;20.30;60.20;;;;;;5092133;28;44617;-66
2022/05/31 01:38:04;;;;;;;2.65;1.60;;;20.30;60.30;;;;;;5091068;28;44869;-66
2022/05/31 01:40:38;;;;;;;3.95;1.50;;;20.30;60.10;;;;;;5091466;28;44858;-66
2022/05/31 01:43:05;;;;;;;2.72;1.58;;;20.40;60.30;;;;;;5092436;28;44995;-66
2022/05/31 01:45:37;;;;;;;3.92;1.60;;;20.40;59.90;;;;;;5076693;28;44986;-66
2022/05/31 01:48:06;;;;;;;2.60;1.70;;;20.30;60.10;;;;;;5071740;28;45080;-66
2022/05/31 01:50:34;;;;;;;4.35;1.23;;;20.30;60.30;;;;;;5087645;28;45033;-66
2022/05/31 01:53:02;;;;;;;3.05;1.60;;;20.40;60.30;;;;;;5089587;28;45592;-66
2022/05/31 01:55:32;;;;;;;3.33;1.40;;;20.30;60.10;;;;;;5090533;28;44659;-66
2022/05/31 01:58:03;;;;;;;4.28;1.70;;;20.30;60.00;;;;;;5089757;28;44783;-66
2022/05/31 02:00:30;;;;;;;3.20;1.80;;;20.30;60.20;;;;;;5089697;28;44684;-66
2022/05/31 02:03:02;;;;;;;3.38;1.65;;;20.30;60.50;;;;;;5091821;28;46587;-66
2022/05/31 02:05:28;;;;;;;1.90;1.40;;;20.30;60.30;;;;;;5090756;28;44782;-66
2022/05/31 02:07:59;;;;;;;3.28;1.67;;;20.30;60.20;;;;;;5091161;28;45078;-66
2022/05/31 02:10:26;;;;;;;2.30;1.50;;;20.30;60.20;;;;;;5087224;28;44918;-65
2022/05/31 02:12:53;;;;;;;2.55;1.50;;;20.30;60.40;;;;;;5090559;28;45476;-66
2022/05/31 02:15:21;;;;;;;2.30;1.38;;;20.30;60.60;;;;;;5091536;28;44643;-66
2022/05/31 02:17:48;;;;;;;3.55;1.65;;;20.30;60.50;;;;;;5089885;28;44697;-66
2022/05/31 02:20:15;;;;;;;2.88;1.55;;;20.30;60.40;;;;;;5078379;28;44895;-66
2022/05/31 02:22:42;;;;;;;6.25;1.65;;;20.30;60.40;;;;;;5070907;28;47142;-66
2022/05/31 02:25:10;;;;;;;4.88;2.08;;;20.30;60.50;;;;;;5089150;28;44802;-66
2022/05/31 02:27:37;;;;;;;2.72;1.63;;;20.30;60.40;;;;;;5090332;28;44979;-66
2022/05/31 02:30:06;;;;;;;6.93;1.60;;;20.30;60.60;;;;;;5090947;28;44810;-65
2022/05/31 02:32:33;;;;;;;3.53;1.67;;;20.30;60.20;;;;;;5090074;28;46597;-66
2022/05/31 02:35:01;;;;;;;5.15;1.50;;;20.30;60.10;;;;;;5091173;28;44684;-66
2022/05/31 02:37:28;;;;;;;2.28;1.27;;;20.30;59.90;;;;;;5090229;28;44593;-66
2022/05/31 02:39:54;;;;;;;5.30;1.58;;;20.30;60.00;;;;;;5090810;28;44811;-66
2022/05/31 02:42:23;;;;;;;2.80;1.45;;;20.30;60.00;;;;;;5089363;28;46615;-66
2022/05/31 02:44:51;;;;;;;2.47;1.40;;;20.30;60.00;;;;;;5091092;28;44570;-66
2022/05/31 02:47:19;;;;;;;4.47;1.45;;;20.30;59.80;;;;;;5081640;28;44657;-66
2022/05/31 02:49:47;;;;;;;3.08;1.60;;;20.30;59.90;;;;;;5080241;28;44791;-66
2022/05/31 02:52:14;;;;;;;2.35;1.45;;;20.30;59.90;;;;;;5089017;28;46322;-66
2022/05/31 02:54:41;;;;;;;2.03;1.27;;;20.30;60.00;;;;;;5090055;28;44606;-66
2022/05/31 02:57:08;;;;;;;3.63;1.42;;;20.30;59.90;;;;;;5091116;28;44631;-66
2022/05/31 02:59:36;;;;;;;3.25;1.50;;;20.40;60.20;;;;;;5076176;28;44679;-66
2022/05/31 03:02:04;;;;;;;1.98;1.40;;;20.30;60.20;;;;;;5077001;28;46605;-66
2022/05/31 03:04:30;;;;;;;3.83;1.60;;;20.30;60.40;;;;;;5089185;28;45625;-66
2022/05/31 03:07:01;;;;;;;3.03;1.80;;;20.30;60.10;;;;;;5089553;28;44679;-66
2022/05/31 03:09:28;;;;;;;3.40;1.73;;;20.30;60.30;;;;;;5088782;28;44608;-66
2022/05/31 03:11:58;;;;;;;3.08;1.20;;;20.30;60.20;;;;;;5088196;28;45578;-66
2022/05/31 03:14:28;;;;;;;3.17;1.35;;;20.30;60.10;;;;;;5090443;28;44648;-66
2022/05/31 03:17:01;;;;;;;2.15;1.40;;;20.30;60.50;;;;;;5090672;28;44673;-66
2022/05/31 03:19:33;;;;;;;4.50;1.40;;;20.30;60.40;;;;;;5090040;28;44783;-66
2022/05/31 03:22:07;;;;;;;2.35;1.30;;;20.30;60.40;;;;;;5088660;28;46589;-66
2022/05/31 03:24:41;;;;;;;2.75;1.45;;;20.30;60.40;;;;;;5071591;28;44887;-65
2022/05/31 03:27:10;;;;;;;5.22;1.80;;;20.30;60.20;;;;;;5068028;28;44711;-66
2022/05/31 03:29:40;;;;;;;3.22;1.60;;;20.30;60.00;;;;;;5085685;28;44967;-66
2022/05/31 03:32:09;;;;;;;4.25;1.25;;;20.30;60.10;;;;;;5090689;28;46593;-66
2022/05/31 03:34:37;;;;;;;3.70;1.60;;;20.30;60.20;;;;;;5082209;28;44700;-66
2022/05/31 03:37:04;;;;;;;2.25;1.35;;;20.30;60.20;;;;;;5080108;28;45153;-66
2022/05/31 03:39:31;;;;;;;2.70;1.60;;;20.30;60.20;;;;;;5089745;28;44916;-66
2022/05/31 03:41:58;;;;;;;3.40;1.40;;;20.30;60.20;;;;;;5090565;28;46288;-66
2022/05/31 03:44:25;;;;;;;2.65;1.30;;;20.30;60.10;;;;;;5090440;28;44811;-66
2022/05/31 03:46:51;;;;;;;1.77;1.23;;;20.30;60.20;;;;;;5085943;28;44641;-66
2022/05/31 03:49:20;;;;;;;2.13;1.30;;;20.30;60.10;;;;;;5087791;28;44811;-66
2022/05/31 03:51:46;;;;;;;2.35;1.15;;;20.30;60.10;;;;;;5090280;28;46317;-66
2022/05/31 03:54:13;;;;;;;4.35;1.30;;;20.30;60.20;;;;;;5085450;28;45102;-66
2022/05/31 03:56:40;;;;;;;2.00;1.05;;;20.30;60.10;;;;;;5090251;28;44994;-66
2022/05/31 03:59:07;;;;;;;1.60;1.00;;;20.30;60.00;;;;;;5081762;28;44826;-66
2022/05/31 04:01:33;;;;;;;1.77;1.08;;;20.30;60.30;;;;;;5090060;28;45148;-66
2022/05/31 04:04:03;;;;;;;2.17;1.30;;;20.30;60.10;;;;;;5090024;28;44755;-66
2022/05/31 04:06:32;;;;;;;1.70;1.00;;;20.30;60.30;;;;;;5087368;28;44968;-66
2022/05/31 04:08:59;;;;;;;2.70;1.20;;;20.30;60.20;;;;;;5087741;28;44801;-66
2022/05/31 04:11:25;;;;;;;1.35;1.02;;;20.30;60.10;;;;;;5088755;28;46621;-66
2022/05/31 04:13:53;;;;;;;2.40;1.17;;;20.30;60.20;;;;;;5088547;28;44984;-66
2022/05/31 04:16:20;;;;;;;2.22;0.95;;;20.30;60.10;;;;;;5093809;22;46215;-66
2022/05/31 04:18:47;;;;;;;1.23;0.80;;;20.30;60.20;;;;;;5069876;28;45338;-66
2022/05/31 04:21:16;;;;;;;3.22;0.93;;;20.30;60.50;;;;;;5068379;28;46216;-66
2022/05/31 04:24:02;;;;;;;2.03;1.20;;;20.30;60.40;;;;;;5069207;28;45297;-66
2022/05/31 04:26:30;;;;;;;1.02;0.80;;;20.30;60.30;;;;;;5068987;28;45189;-66
2022/05/31 04:28:58;;;;;;;1.25;0.90;;;20.30;60.30;;;;;;5050749;28;45298;-66
2022/05/31 04:31:25;;;;;;;2.53;1.30;;;20.30;60.10;;;;;;5066759;28;47405;-65
2022/05/31 04:33:52;;;;;;;2.80;1.10;;;20.30;60.20;;;;;;5070175;28;45166;-66
2022/05/31 04:36:20;;;;;;;3.15;1.13;;;20.30;60.10;;;;;;5069359;28;45247;-66
2022/05/31 04:38:49;;;;;;;2.33;1.02;;;20.30;60.10;;;;;;5069176;28;45268;-66
2022/05/31 04:41:18;;;;;;;2.88;1.10;;;20.30;60.10;;;;;;5067578;28;45264;-66
2022/05/31 04:43:45;;;;;;;2.25;1.08;;;20.30;60.00;;;;;;5068624;28;45254;-66
2022/05/31 04:46:14;;;;;;;2.60;0.98;;;20.30;60.20;;;;;;5070225;28;45281;-66
2022/05/31 04:48:40;;;;;;;1.70;1.00;;;20.30;60.10;;;;;;5069227;28;45121;-66
2022/05/31 04:51:07;;;;;;;2.45;1.00;;;20.30;60.10;;;;;;5069814;28;45317;-66
2022/05/31 04:53:34;;;;;;;1.70;1.15;;;20.30;60.10;;;;;;5068088;28;45326;-66
2022/05/31 04:56:04;;;;;;;2.88;1.20;;;20.30;60.10;;;;;;5068446;28;45334;-66
2022/05/31 04:58:31;;;;;;;2.00;1.00;;;20.30;60.30;;;;;;5066489;28;45222;-66
2022/05/31 05:01:01;;;;;;;2.70;1.10;;;20.30;60.10;;;;;;5069043;28;46204;-66
2022/05/31 05:03:28;;;;;;;2.85;1.25;;;20.30;60.20;;;;;;5069822;28;45224;-66
2022/05/31 05:05:59;;;;;;;4.97;1.00;;;20.30;60.30;;;;;;5067214;28;45200;-66
2022/05/31 05:08:26;;;;;;;1.55;0.80;;;20.30;60.20;;;;;;5068708;28;45406;-66
2022/05/31 05:10:53;;;;;;;2.83;1.17;;;20.30;60.40;;;;;;5068058;28;46013;-66
2022/05/31 05:13:21;;;;;;;1.90;0.82;;;20.30;60.50;;;;;;5048785;28;45156;-66
2022/05/31 05:15:48;;;;;;;2.60;1.23;;;20.30;60.40;;;;;;5049464;28;45192;-66
2022/05/31 05:18:15;;;;;;;3.28;0.93;;;20.30;60.30;;;;;;5062937;28;45426;-66
2022/05/31 05:20:42;;;;;;;1.88;0.93;;;20.20;60.50;;;;;;5057246;28;45194;-66
2022/05/31 05:23:09;;;;;;;1.50;1.00;;;20.30;60.40;;;;;;5049766;28;45070;-66
2022/05/31 05:25:36;;;;;;;2.17;0.90;;;20.20;60.20;;;;;;5048596;28;45128;-65
2022/05/31 05:30:38;;;;;;;2.92;1.17;;;20.30;60.20;;;;;;5066741;28;45446;-65
2022/05/31 05:30:51;;;;;;;2.50;0.90;;;20.30;60.10;;;;;;5069023;28;45342;-66
2022/05/31 05:33:18;;;;;;;1.77;1.00;;;20.30;60.20;;;;;;5067606;28;45309;-65
2022/05/31 05:35:45;;;;;;;1.98;0.93;;;20.30;61.20;;;;;;5069072;28;45424;-65
2022/05/31 05:38:13;;;;;;;1.83;0.93;;;20.30;60.10;;;;;;5064672;28;45289;-65
2022/05/31 05:40:40;;;;;;;2.33;1.20;;;20.30;60.10;;;;;;5048855;28;47353;-65
2022/05/31 05:43:08;;;;;;;2.25;0.93;;;20.30;60.20;;;;;;5061088;28;45548;-65
2022/05/31 05:45:35;;;;;;;1.98;1.15;;;20.30;60.20;;;;;;5069080;28;45172;-65
2022/05/31 05:48:05;;;;;;;1.63;1.00;;;20.30;60.20;;;;;;5067108;28;45448;-65
2022/05/31 05:50:33;;;;;;;2.22;0.85;;;20.30;60.10;;;;;;5068044;28;45200;-65
2022/05/31 05:53:03;;;;;;;1.65;0.93;;;20.30;60.20;;;;;;5069031;28;45156;-65
2022/05/31 05:55:30;;;;;;;1.35;0.90;;;20.30;60.30;;;;;;5064983;28;45371;-65
2022/05/31 05:57:57;;;;;;;1.00;0.80;;;20.30;60.30;;;;;;5067270;28;45191;-65
2022/05/31 06:00:24;;;;;;;2.70;1.20;;;20.30;60.50;;;;;;5067620;28;46573;-65
2022/05/31 06:02:57;;;;;;;2.28;0.98;;;20.30;60.50;;;;;;5068929;28;45124;-65
2022/05/31 06:05:29;;;;;;;1.55;0.80;;;20.30;60.70;;;;;;5066577;28;45182;-65
2022/05/31 06:08:00;;;;;;;1.20;0.80;;;20.30;60.70;;;;;;5068581;28;45283;-65
2022/05/31 06:10:32;;;;;;;1.55;0.93;;;20.30;61.90;;;;;;5066916;28;45656;-65
2022/05/31 06:13:02;;;;;;;1.83;1.17;;;20.30;60.80;;;;;;5067705;28;45117;-65
2022/05/31 06:15:33;;;;;;;3.55;1.13;;;20.30;61.00;;;;;;5068952;28;45296;-65
2022/05/31 06:18:05;;;;;;;2.25;1.33;;;20.30;61.10;;;;;;5067053;28;45337;-65
2022/05/31 06:20:33;;;;;;;2.28;1.45;;;20.30;61.00;;;;;;5066785;28;45280;-65
2022/05/31 06:23:02;;;;;;;1.52;1.00;;;20.30;60.90;;;;;;5067143;28;45162;-65
2022/05/31 06:25:28;;;;;;;3.08;1.50;;;20.30;61.00;;;;;;5068380;28;45237;-65
2022/05/31 06:27:55;;;;;;;2.60;1.38;;;20.30;61.00;;;;;;5065372;28;45466;-65
2022/05/31 06:30:22;;;;;;;1.40;1.10;;;20.30;61.00;;;;;;5067120;28;47251;-65
2022/05/31 06:32:49;;;;;;;1.77;1.30;;;20.30;61.10;;;;;;5068295;28;45235;-65
2022/05/31 06:35:16;;;;;;;2.15;1.30;;;20.30;61.00;;;;;;5067381;28;45161;-65
2022/05/31 06:37:44;;;;;;;3.30;1.42;;;20.30;61.00;;;;;;5067547;28;45170;-65
2022/05/31 06:40:12;;;;;;;2.13;1.08;;;20.30;61.10;;;;;;5059797;28;46395;-65
2022/05/31 06:42:39;;;;;;;2.47;1.33;;;20.30;61.10;;;;;;5051684;28;45244;-65
2022/05/31 06:45:07;;;;;;;1.88;1.10;;;20.30;61.30;;;;;;5066209;28;45214;-65
2022/05/31 06:47:34;;;;;;;3.13;1.20;;;20.30;61.30;;;;;;5067453;28;45145;-65
2022/05/31 06:50:00;;;;;;;3.88;1.30;;;20.30;61.20;;;;;;5064519;28;45429;-65
2022/05/31 06:57:57;;;;;;;1.80;1.10;;;20.30;61.50;;;;;;5065737;28;45245;-65
2022/05/31 07:00:24;;;;;;;2.10;0.98;;;20.30;61.60;;;;;;5056622;28;46598;-65
2022/05/31 07:02:53;;;;;;;2.38;0.85;;;20.30;61.70;;;;;;5068414;28;45268;-65
2022/05/31 07:05:20;;;;;;;2.40;0.98;;;20.30;61.80;;;;;;5066975;28;45477;-65
2022/05/31 07:07:47;;;;;;;3.00;1.05;;;20.30;61.70;;;;;;5056851;28;45311;-65
2022/05/31 07:10:16;;;;;;;3.13;1.15;;;20.30;61.90;;;;;;5066928;28;47359;-65
2022/05/31 07:12:43;;;;;;;1.67;1.10;;;20.30;61.80;;;;;;5049645;28;45274;-65
2022/05/31 07:15:11;;;;;;;1.90;0.90;;;20.30;61.80;;;;;;5047534;28;45356;-65
2022/05/31 07:17:38;;;;;;;3.35;1.05;;;20.30;61.80;;;;;;5056704;28;45446;-65
2022/05/31 07:20:06;;;;;;;1.80;0.90;;;20.30;61.80;;;;;;5067148;28;47098;-65
2022/05/31 07:22:33;;;;;;;1.25;0.90;;;20.30;61.80;;;;;;5051366;28;45218;-65
2022/05/31 07:25:01;;;;;;;3.42;1.27;;;20.30;61.90;;;;;;5061764;28;45252;-65
2022/05/31 07:27:29;;;;;;;0.93;0.88;;;20.30;61.80;;;;;;5066177;28;45311;-65
2022/05/31 07:29:56;;;;;;;0.90;0.75;;;20.30;61.80;;;;;;5065553;28;45216;-65
2022/05/31 07:32:23;;;;;;;2.17;0.98;;;20.30;62.80;;;;;;5067323;28;45243;-65
2022/05/31 07:34:50;;;;;;;1.60;0.85;;;20.30;61.80;;;;;;5067466;28;45160;-65
2022/05/31 07:37:18;;;;;;;1.52;0.80;;;20.30;61.80;;;;;;5066414;28;45252;-65
2022/05/31 07:39:44;;;;;;;2.30;0.85;;;20.30;61.80;;;;;;5053605;28;47056;-65
2022/05/31 07:42:11;;;;;;;4.05;1.00;;;20.40;61.90;;;;;;5047457;28;45191;-65
2022/05/31 07:44:40;;;;;;;2.35;0.90;;;20.30;61.70;;;;;;5047101;28;45145;-65
2022/05/31 07:47:06;;;;;;;1.88;0.80;;;20.30;61.80;;;;;;5049083;28;45286;-65
2022/05/31 07:49:33;;;;;;;1.17;0.90;;;20.30;61.90;;;;;;5066821;28;46685;-65
2022/05/31 07:52:00;;;;;;;1.92;0.88;;;20.30;61.80;;;;;;5069748;28;45303;-65
2022/05/31 07:54:30;;;;;;;1.85;0.85;;;20.30;61.90;;;;;;5068969;28;45189;-65
2022/05/31 07:56:57;;;;;;;2.35;0.60;;;20.30;61.90;;;;;;5071135;28;45414;-65
2022/05/31 07:59:24;;;;;;;2.13;0.90;;;20.30;61.90;;;;;;5068628;28;45351;-65
2022/05/31 08:01:52;;;;;;;4.38;1.08;;;20.30;61.90;;;;;;5070588;28;45219;-65
2022/05/31 08:04:19;;;;;;;1.17;0.70;;;20.30;61.90;;;;;;5070690;28;45210;-65
2022/05/31 08:06:46;;;;;;;2.60;0.98;;;20.30;61.90;;;;;;5070095;28;45408;-65
2022/05/31 08:09:12;;;;;;;2.58;0.98;;;20.30;61.90;;;;;;5069463;28;47093;-65
2022/05/31 08:11:39;;;;;;;1.23;0.70;;;20.30;61.80;;;;;;5061600;28;45436;-65
2022/05/31 08:14:06;;;;;;;1.92;0.63;;;20.30;61.70;;;;;;5050499;28;45167;-65
2022/05/31 08:16:34;;;;;;;3.33;0.80;;;20.30;61.50;;;;;;5050101;28;45304;-65
2022/05/31 08:19:04;;;;;;;3.05;1.05;;;20.30;61.50;;;;;;5049694;28;47279;-65
2022/05/31 08:21:32;;;;;;;2.50;0.95;;;20.30;61.40;;;;;;5063720;28;45282;-65
2022/05/31 08:24:01;;;;;;;2.72;1.00;;;20.30;61.50;;;;;;5070680;28;45194;-65
2022/05/31 08:26:28;;;;;;;3.05;1.00;;;20.30;61.50;;;;;;5070525;28;45292;-65
2022/05/31 08:28:55;;;;;;;2.13;1.00;;;20.40;61.50;;;;;;5068400;28;46524;-65
2022/05/31 08:31:24;;;;;;;1.63;0.80;;;20.30;61.40;;;;;;5070315;28;45313;-65
2022/05/31 08:33:51;;;;;;;1.77;1.02;;;20.40;61.50;;;;;;5069404;28;45262;-65
2022/05/31 08:36:19;;;;;;;1.83;0.90;;;20.40;61.60;;;;;;5068461;28;45223;-65
2022/05/31 08:38:46;;;;;;;2.08;0.68;;;20.40;62.40;;;;;;5048931;28;45217;-65
2022/05/31 08:41:30;;;;;;;3.78;1.10;;;20.40;61.40;;;;;;5050315;28;45322;-65
2022/05/31 08:44:07;;;;;;;2.70;1.02;;;20.40;61.40;;;;;;5049164;28;45178;-65
2022/05/31 08:46:47;;;;;;;1.83;1.00;;;20.30;61.40;;;;;;5062484;28;45513;-65
2022/05/31 08:49:23;;;;;;;1.85;0.98;;;20.30;61.40;;;;;;5067983;28;46480;-65
2022/05/31 08:52:03;;;;;;;2.35;1.20;;;20.30;61.50;;;;;;5069804;28;45595;-65
2022/05/31 08:57:28;;;;;;;2.67;0.98;;;20.40;61.70;;;;;;5050244;28;45262;-65
2022/05/31 08:59:59;;;;;;;4.55;1.05;;;20.40;61.70;;;;;;5068256;28;45278;-65
2022/05/31 09:02:30;;;;;;;2.15;1.40;;;20.40;61.70;;;;;;5068193;28;46904;-65
2022/05/31 09:05:04;;;;;;;1.65;1.10;;;20.40;61.70;;;;;;5069798;28;45208;-65
2022/05/31 09:07:37;;;;;;;2.38;1.10;;;20.30;61.60;;;;;;5068576;28;45386;-65
2022/05/31 09:10:07;;;;;;;3.97;1.30;;;20.30;61.60;;;;;;5066890;28;47086;-65
2022/05/31 09:12:42;;;;;;;2.83;1.17;;;20.30;61.50;;;;;;5068662;28;45235;-65
2022/05/31 09:15:16;;;;;;;2.72;1.15;;;20.40;61.50;;;;;;5067815;28;45173;-65
2022/05/31 09:17:54;;;;;;;1.75;0.90;;;20.40;61.50;;;;;;5069121;28;45178;-65
2022/05/31 09:20:29;;;;;;;3.80;1.30;;;20.40;61.40;;;;;;5066707;28;46465;-65
2022/05/31 09:22:58;;;;;;;2.13;1.17;;;20.40;61.50;;;;;;5067961;28;45190;-65
2022/05/31 09:25:27;;;;;;;2.28;0.98;;;20.40;61.50;;;;;;5067200;28;45308;-65
2022/05/31 09:27:54;;;;;;;2.42;1.33;;;20.40;61.40;;;;;;5066237;28;45958;-65
2022/05/31 09:30:26;;;;;;;4.20;1.20;;;20.40;61.40;;;;;;5068213;28;47926;-65
2022/05/31 09:33:04;;;;;;;3.45;0.95;;;20.40;61.50;;;;;;5069075;28;45640;-65
2022/05/31 09:36:00;;;;;;;2.78;1.02;;;20.40;61.50;;;;;;5067771;28;45466;-65
2022/05/31 09:39:19;;;;;;;3.08;1.10;;;20.40;61.50;;;;;;5050485;28;45385;-65
2022/05/31 09:41:51;;;;;;;1.42;1.00;;;20.40;61.60;;;;;;5063436;28;45238;-65
2022/05/31 09:44:24;;;;;;;2.92;1.00;;;20.40;61.70;;;;;;5066094;28;45537;-65
2022/05/31 09:46:57;;;;;;;1.95;1.08;;;20.40;61.70;;;;;;5050231;28;45228;-65
2022/05/31 09:49:32;;;;;;;1.45;0.90;;;20.40;61.80;;;;;;5054465;28;45152;-65
2022/05/31 09:51:59;;;;;;;2.60;1.00;;;20.40;61.90;;;;;;5068008;28;46073;-65
2022/05/31 09:57:20;;;;;;;2.40;1.10;;;20.40;61.90;;;;;;5069459;28;45236;-65
2022/05/31 09:59:50;;;;;;;3.28;1.17;;;20.40;61.90;;;;;;5065447;28;45483;-65
2022/05/31 10:02:26;;;;;;;2.67;1.20;;;20.40;61.90;;;;;;5068737;28;46183;-65
2022/05/31 10:05:11;;;;;;;3.13;1.35;;;20.40;61.90;;;;;;5068509;28;45643;-65
2022/05/31 10:07:39;;;;;;;1.35;0.70;;;20.40;61.90;;;;;;5067811;28;45217;-65
2022/05/31 10:10:12;;;;;;;2.60;1.20;;;20.40;61.90;;;;;;5060514;28;45269;-65
2022/05/31 10:12:49;;;;;;;4.47;1.00;;;20.40;61.80;;;;;;5061875;28;48028;-65
2022/05/31 10:15:40;;;;;;;3.72;1.13;;;20.40;61.70;;;;;;5059282;28;45227;-65
2022/05/31 10:18:09;;;;;;;2.83;1.20;;;20.40;61.60;;;;;;5057887;28;45259;-65
2022/05/31 10:20:37;;;;;;;1.23;0.88;;;20.40;61.50;;;;;;5065705;28;45326;-65
2022/05/31 10:23:09;;;;;;;1.33;0.93;;;20.40;61.50;;;;;;5067018;28;46283;-65
2022/05/31 10:25:41;;;;;;;1.77;0.95;;;20.40;61.70;;;;;;5068568;28;45530;-65
2022/05/31 10:28:15;;;;;;;2.08;1.00;;;20.40;61.90;;;;;;5066982;28;45125;-65
2022/05/31 10:30:42;;;;;;;3.30;1.25;;;20.40;61.80;;;;;;5068499;28;45261;-65
2022/05/31 10:33:18;;;;;;;0.98;0.73;;;20.40;61.80;;;;;;5066732;28;45233;-65
2022/05/31 10:35:46;;;;;;;5.00;0.98;;;20.40;62.00;;;;;;5068208;28;45304;-65
2022/05/31 10:38:29;;;;;;;2.35;1.23;;;20.50;62.20;;;;;;5066774;28;45244;-65
2022/05/31 10:41:02;;;;;;;1.90;1.00;;;20.40;61.90;;;;;;5068253;28;45307;-65
2022/05/31 10:43:36;;;;;;;2.17;1.13;;;20.40;62.00;;;;;;5068285;28;46290;-65
2022/05/31 10:46:08;;;;;;;3.00;0.90;;;20.40;62.00;;;;;;5057492;28;45583;-65
2022/05/31 10:48:40;;;;;;;2.33;1.10;;;20.40;62.10;;;;;;5067272;28;45196;-65
2022/05/31 10:51:11;;;;;;;2.55;1.00;;;20.40;62.10;;;;;;5068469;28;45148;-65
2022/05/31 10:53:48;;;;;;;2.03;1.30;;;20.40;62.10;;;;;;5066113;28;46376;-65
2022/05/31 10:56:22;;;;;;;2.92;1.25;;;20.40;62.10;;;;;;5066420;28;45231;-65
2022/05/31 10:58:57;;;;;;;1.50;1.08;;;20.40;62.10;;;;;;5066171;28;45175;-65
2022/05/31 11:01:36;;;;;;;0.70;0.70;;;20.40;62.20;;;;;;5064652;28;45140;-65
2022/05/31 11:04:14;;;;;;;3.38;1.10;;;20.40;62.00;;;;;;5067340;28;46232;-65
2022/05/31 11:06:54;;;;;;;3.13;0.95;;;20.40;62.00;;;;;;5060364;28;45198;-65
2022/05/31 11:12:42;;;;;;;2.05;1.20;;;20.40;61.90;;;;;;5063972;28;45257;-65
2022/05/31 11:15:21;;;;;;;1.40;0.73;;;20.40;61.80;;;;;;5066707;28;45352;-65
2022/05/31 11:18:05;;;;;;;2.20;0.90;;;20.50;61.80;;;;;;5067231;28;45936;-65
2022/05/31 11:20:43;;;;;;;1.75;0.95;;;20.40;61.80;;;;;;5065234;28;45263;-65
2022/05/31 11:23:24;;;;;;;1.95;0.80;;;20.40;61.90;;;;;;5067860;28;45309;-65
2022/05/31 11:26:05;;;;;;;3.75;1.00;;;20.50;61.90;;;;;;5068199;28;46058;-65
2022/05/31 11:28:45;;;;;;;1.98;1.00;;;20.40;61.80;;;;;;5065739;28;45426;-65
2022/05/31 11:31:24;;;;;;;1.73;0.90;;;20.40;61.80;;;;;;5046915;28;45185;-65
2022/05/31 11:34:17;;;;;;;2.35;0.98;;;20.50;61.90;;;;;;5047682;28;45210;-65
2022/05/31 11:36:57;;;;;;;2.03;1.10;;;20.50;62.90;;;;;;5046529;28;47935;-65
2022/05/31 11:39:47;;;;;;;2.15;1.02;;;20.40;61.80;;;;;;5046269;28;45654;-65
2022/05/31 11:42:30;;;;;;;2.25;1.20;;;20.40;61.90;;;;;;5055369;28;45215;-65
2022/05/31 11:45:09;;;;;;;1.77;1.15;;;20.40;61.90;;;;;;5067758;28;45089;-65
2022/05/31 11:47:56;;;;;;;2.08;1.10;;;20.50;61.90;;;;;;5064770;28;46514;-65
2022/05/31 11:50:30;;;;;;;2.88;1.20;;;20.40;61.90;;;;;;5065430;28;45154;-65
2022/05/31 11:53:26;;;;;;;1.90;1.05;;;20.40;61.80;;;;;;5067518;28;45164;-65
2022/05/31 11:55:58;;;;;;;3.15;1.08;;;20.40;61.70;;;;;;5045701;28;45231;-65
2022/05/31 11:58:42;;;;;;;1.50;0.90;;;20.40;61.80;;;;;;5045883;28;47916;-65
2022/05/31 12:01:16;;;;;;;2.35;1.20;;;20.40;61.70;;;;;;5046845;28;45279;-65
2022/05/31 12:03:53;;;;;;;1.23;0.85;;;20.40;61.70;;;;;;5063324;28;45342;-65
2022/05/31 12:06:30;;;;;;;1.85;0.88;;;20.50;61.70;;;;;;5064425;28;45274;-65
2022/05/31 12:09:01;;;;;;;4.70;1.27;;;20.50;61.60;;;;;;5065916;28;45986;-65
2022/05/31 12:11:33;;;;;;;0.95;0.80;;;20.50;61.50;;;;;;5058788;28;45186;-65
2022/05/31 12:14:02;;;;;;;1.48;0.70;;;20.50;61.50;;;;;;5045300;28;45316;-65
2022/05/31 12:16:30;;;;;;;1.05;0.70;;;20.50;61.40;;;;;;5061936;28;45342;-65
2022/05/31 12:19:08;;;;;;;1.90;0.90;;;20.50;61.40;;;;;;5065271;28;46114;-65
2022/05/31 12:21:41;;;;;;;1.20;0.80;;;20.50;61.40;;;;;;5064461;28;45361;-65
2022/05/31 12:24:14;;;;;;;1.02;0.93;;;20.50;61.40;;;;;;5061053;28;45487;-65
2022/05/31 12:26:50;;;;;;;1.10;0.70;;;20.50;61.40;;;;;;5062280;28;45215;-65
2022/05/31 12:29:22;;;;;;;1.20;0.82;;;20.50;61.40;;;;;;5043672;28;45507;-65
2022/05/31 12:31:51;;;;;;;1.73;0.80;;;20.50;61.50;;;;;;5065320;28;45207;-65
2022/05/31 12:34:44;;;;;;;1.05;0.77;;;20.50;61.60;;;;;;5066844;28;45219;-65
2022/05/31 12:37:13;;;;;;;1.38;0.68;;;20.50;61.70;;;;;;5068781;28;45361;-65
2022/05/31 12:39:41;;;;;;;0.73;0.65;;;20.50;61.70;;;;;;5069270;28;46278;-65
2022/05/31 12:42:48;;;;;;;1.58;0.95;;;20.50;61.70;;;;;;5070091;28;45230;-65
2022/05/31 12:45:38;;;;;;;1.73;0.90;;;20.50;61.70;;;;;;5057565;28;45315;-65
2022/05/31 12:48:18;;;;;;;1.35;0.80;;;20.50;61.50;;;;;;5050359;28;45180;-65
2022/05/31 12:51:05;;;;;;;0.75;0.70;;;20.50;61.70;;;;;;5068153;28;45514;-65
2022/05/31 12:53:59;;;;;;;1.42;0.70;;;20.50;61.60;;;;;;5054715;28;45315;-65
2022/05/31 12:57:02;;;;;;;1.48;0.90;;;20.40;62.20;;;;;;5069625;28;45211;-65
2022/05/31 12:59:51;;;;;;;1.02;0.70;;;20.50;61.40;;;;;;5068245;28;45517;-65
2022/05/31 13:02:29;;;;;;;1.65;0.90;;;20.50;61.20;;;;;;5066893;28;45619;-65
2022/05/31 13:05:00;;;;;;;0.60;0.60;;;20.50;61.20;;;;;;5068018;28;45227;-65
2022/05/31 13:07:43;;;;;;;0.57;0.57;;;20.50;61.00;;;;;;5068331;28;45452;-65
2022/05/31 13:10:35;;;;;;;1.35;0.80;;;20.50;61.00;;;;;;5069242;28;45264;-65
2022/05/31 13:21:21;;;;;;;0.50;0.50;;;20.50;60.90;;;;;;5064250;28;45471;-65
2022/05/31 13:23:48;;;;;;;2.35;0.80;;;20.50;61.00;;;;;;5066963;28;45659;-65
2022/05/31 13:26:19;;;;;;;0.65;0.60;;;20.50;61.00;;;;;;5066337;28;45567;-65
2022/05/31 13:28:53;;;;;;;1.23;0.82;;;20.50;61.20;;;;;;5067548;28;45286;-65
2022/05/31 13:31:22;;;;;;;2.83;0.60;;;20.50;61.30;;;;;;5067705;28;45350;-65